createdAt,value
2022-10-17T00:00:15.995Z,93.19
2022-10-17T00:01:19.766Z,93.42
2022-10-17T00:02:23.871Z,93.72
2022-10-17T00:03:27.639Z,93.81
2022-10-17T00:04:31.498Z,93.69
2022-10-17T00:05:41.316Z,93.56
2022-10-17T00:06:45.036Z,93.60
2022-10-17T00:07:48.707Z,93.61
2022-10-17T00:08:52.322Z,93.85
2022-10-17T00:09:55.946Z,93.65
2022-10-17T00:11:07.929Z,93.56
2022-10-17T00:12:12.439Z,93.53
2022-10-17T00:13:16.086Z,93.19
2022-10-17T00:14:19.753Z,93.43
2022-10-17T00:15:23.979Z,93.56
2022-10-17T00:16:37.187Z,93.67
2022-10-17T00:17:42.063Z,93.42
2022-10-17T00:18:45.761Z,93.30
2022-10-17T00:19:49.469Z,93.37
2022-10-17T00:20:53.583Z,93.71
2022-10-17T00:21:57.211Z,94.33
2022-10-17T00:23:00.988Z,94.40
2022-10-17T00:24:05.052Z,94.40
2022-10-17T00:25:09.567Z,94.15
2022-10-17T00:26:13.410Z,94.06
2022-10-17T00:27:17.183Z,94.39
2022-10-17T00:28:20.815Z,94.72
2022-10-17T00:29:24.458Z,94.53
2022-10-17T00:30:28.088Z,94.42
2022-10-17T00:31:31.711Z,94.44
2022-10-17T00:32:35.365Z,94.16
2022-10-17T00:33:39.453Z,94.26
2022-10-17T00:34:46.687Z,94.40
2022-10-17T00:35:50.300Z,94.14
2022-10-17T00:36:54.020Z,93.88
2022-10-17T00:37:57.715Z,94.10
2022-10-17T00:39:01.400Z,94.29
2022-10-17T00:40:07.711Z,94.36
2022-10-17T00:41:16.826Z,94.13
2022-10-17T00:42:41.078Z,94.08
2022-10-17T00:44:01.666Z,94.31
2022-10-17T00:45:32.165Z,94.58
2022-10-17T00:46:39.716Z,94.50
2022-10-17T00:47:48.708Z,94.28
2022-10-17T00:48:55.612Z,94.64
2022-10-17T00:50:05.361Z,94.71
2022-10-17T00:51:09.595Z,94.74
2022-10-17T00:52:20.740Z,95.10
2022-10-17T00:53:24.608Z,95.25
2022-10-17T00:54:35.073Z,95.32
2022-10-17T00:56:05.535Z,95.30
2022-10-17T00:57:09.953Z,95.25
2022-10-17T00:58:13.694Z,94.83
2022-10-17T00:59:22.032Z,94.87
2022-10-17T01:00:25.814Z,94.45
2022-10-17T01:01:29.816Z,94.45
2022-10-17T01:02:33.588Z,94.81
2022-10-17T01:03:37.491Z,94.97
2022-10-17T01:04:45.250Z,94.73
2022-10-17T01:05:48.869Z,95.10
2022-10-17T01:06:52.529Z,94.81
2022-10-17T01:07:56.700Z,94.58
2022-10-17T01:09:00.418Z,94.62
2022-10-17T01:10:06.575Z,94.71
2022-10-17T01:11:57.685Z,94.85
2022-10-17T01:13:23.708Z,95.23
2022-10-17T01:14:49.275Z,95.17
2022-10-17T01:16:34.370Z,95.38
2022-10-17T01:17:59.711Z,95.31
2022-10-17T01:19:43.992Z,95.08
2022-10-17T01:21:25.296Z,95.24
2022-10-17T01:23:11.242Z,95.42
2022-10-17T01:24:58.945Z,95.57
2022-10-17T01:26:37.771Z,95.76
2022-10-17T01:27:49.709Z,95.49
2022-10-17T01:29:59.500Z,95.87
2022-10-17T01:31:22.415Z,95.70
2022-10-17T01:32:44.279Z,96.06
2022-10-17T01:34:21.426Z,96.20
2022-10-17T01:35:44.237Z,96.39
2022-10-17T01:37:14.857Z,96.10
2022-10-17T01:38:32.613Z,95.82
2022-10-17T01:40:00.306Z,96.18
2022-10-17T01:41:17.575Z,96.15
2022-10-17T01:42:42.773Z,96.32
2022-10-17T01:44:03.567Z,96.10
2022-10-17T01:45:28.001Z,96.13
2022-10-17T01:46:45.271Z,96.31
2022-10-17T01:47:53.536Z,95.95
2022-10-17T01:49:02.894Z,95.86
2022-10-17T01:50:18.964Z,95.96
2022-10-17T01:51:33.159Z,96.32
2022-10-17T01:52:55.941Z,96.28
2022-10-17T01:54:47.804Z,96.02
2022-10-17T01:57:21.558Z,95.61
2022-10-17T01:58:46.680Z,95.96
2022-10-17T01:59:55.263Z,96.01
2022-10-17T09:01:17.117Z,30.96
2022-10-17T09:03:34.432Z,30.57
2022-10-17T09:06:10.803Z,30.58
2022-10-17T09:29:17.942Z,36.87
2022-10-17T09:31:55.229Z,37.63
2022-10-17T10:53:57.445Z,49.54
2022-10-17T10:55:55.847Z,50.37
2022-10-17T10:57:04.303Z,50.11
2022-10-17T10:58:57.873Z,49.58
2022-10-17T11:00:38.106Z,50.15
2022-10-17T11:02:14.377Z,49.89
2022-10-17T11:04:16.673Z,50.54
2022-10-17T11:06:03.336Z,50.73
2022-10-17T11:07:47.792Z,49.75
2022-10-17T11:09:33.785Z,49.66
2022-10-17T11:11:39.324Z,49.48
2022-10-17T11:13:04.443Z,50.12
2022-10-17T11:14:18.652Z,49.80
2022-10-17T11:15:44.869Z,49.80
2022-10-17T11:17:23.485Z,50.33
2022-10-17T11:18:50.882Z,49.84
2022-10-17T11:20:08.729Z,50.33
2022-10-17T11:21:57.131Z,50.07
2022-10-17T11:23:21.537Z,50.38
2022-10-17T11:24:35.909Z,49.90
2022-10-17T11:25:42.157Z,49.71
2022-10-17T11:26:59.160Z,50.12
2022-10-17T11:28:18.065Z,50.05
2022-10-17T11:29:29.620Z,49.77
2022-10-17T11:30:56.954Z,49.64
2022-10-17T11:32:26.767Z,50.14
2022-10-17T11:34:00.284Z,49.65
2022-10-17T11:35:36.809Z,48.75
2022-10-17T11:36:47.078Z,49.08
2022-10-17T11:38:19.601Z,48.71
2022-10-17T11:39:56.654Z,48.84
2022-10-17T11:41:00.739Z,49.08
2022-10-17T11:42:19.001Z,48.70
2022-10-17T11:43:46.528Z,48.71
2022-10-17T11:44:57.753Z,48.42
2022-10-17T11:46:27.373Z,48.53
2022-10-17T11:47:36.301Z,48.40
2022-10-17T11:49:03.778Z,48.30
2022-10-17T11:52:44.469Z,47.89
2022-10-17T11:54:15.068Z,47.37
2022-10-17T11:55:32.889Z,47.93
2022-10-17T11:57:18.575Z,47.87
2022-10-17T11:59:07.929Z,48.12
2022-10-17T12:00:54.462Z,48.08
2022-10-17T12:02:17.469Z,48.23
2022-10-17T12:04:13.221Z,48.17
2022-10-17T12:05:37.575Z,48.15
2022-10-17T12:07:20.924Z,48.53
2022-10-17T12:08:56.869Z,48.35
2022-10-17T12:10:23.606Z,48.50
2022-10-17T12:11:58.114Z,48.24
2022-10-17T12:13:30.158Z,48.37
2022-10-17T12:14:50.629Z,48.19
2022-10-17T12:15:58.891Z,48.14
2022-10-17T12:17:05.235Z,48.50
2022-10-17T12:18:17.790Z,47.92
2022-10-17T12:19:25.897Z,48.14
2022-10-17T12:20:38.024Z,48.16
2022-10-17T12:22:12.988Z,48.23
2022-10-17T12:23:16.459Z,47.32
2022-10-17T12:24:30.780Z,45.88
2022-10-17T12:26:48.716Z,46.61
2022-10-17T12:28:03.367Z,44.97
2022-10-17T12:29:30.219Z,45.13
2022-10-17T12:30:36.644Z,45.41
2022-10-17T12:31:40.944Z,45.58
2022-10-17T12:33:32.929Z,45.00
2022-10-17T12:34:38.425Z,45.31
2022-10-17T12:35:42.314Z,45.21
2022-10-17T12:36:46.366Z,45.32
2022-10-17T12:37:49.907Z,45.18
2022-10-17T12:39:03.380Z,44.54
2022-10-17T12:40:36.027Z,44.09
2022-10-17T12:41:40.151Z,44.61
2022-10-17T12:42:50.566Z,44.32
2022-10-17T12:43:55.688Z,44.22
2022-10-17T12:45:23.785Z,44.52
2022-10-17T12:46:51.242Z,44.47
2022-10-17T12:47:54.803Z,44.37
2022-10-17T12:49:05.118Z,44.52
2022-10-17T12:51:34.057Z,44.34
2022-10-17T12:52:32.832Z,44.25
2022-10-17T12:54:24.230Z,44.40
2022-10-17T12:55:29.659Z,44.33
2022-10-17T12:56:42.062Z,44.17
2022-10-17T12:58:05.206Z,44.58
2022-10-17T12:59:29.655Z,44.13
2022-10-17T13:01:22.540Z,44.19
2022-10-17T13:02:28.589Z,44.47
2022-10-17T13:03:42.896Z,44.27
2022-10-17T13:04:49.594Z,44.15
2022-10-17T13:05:59.090Z,43.50
2022-10-17T13:07:21.591Z,43.52
2022-10-17T13:08:39.327Z,43.58
2022-10-17T13:09:45.554Z,43.54
2022-10-17T13:10:52.819Z,43.30
2022-10-17T13:12:02.093Z,43.59
2022-10-17T13:13:22.479Z,43.41
2022-10-17T13:14:28.688Z,43.58
2022-10-17T13:15:36.448Z,43.16
2022-10-17T13:16:59.205Z,43.16
2022-10-17T13:18:03.197Z,43.37
2022-10-17T13:19:20.519Z,43.00
2022-10-17T13:20:31.343Z,43.30
2022-10-17T13:21:35.737Z,43.16
2022-10-17T13:22:46.185Z,43.03
2022-10-17T13:23:55.168Z,43.19
2022-10-17T13:25:20.135Z,43.25
2022-10-17T13:26:28.547Z,43.25
2022-10-17T13:27:35.942Z,43.25
2022-10-17T13:28:40.406Z,43.51
2022-10-17T13:29:47.927Z,43.10
2022-10-17T13:30:53.661Z,43.70
2022-10-17T13:32:04.570Z,43.54
2022-10-17T13:33:45.137Z,43.47
2022-10-17T13:35:22.057Z,43.39
2022-10-17T13:36:30.608Z,43.74
2022-10-17T13:37:36.125Z,43.38
2022-10-17T13:38:41.957Z,43.40
2022-10-17T13:40:00.261Z,43.31
2022-10-17T13:41:34.979Z,43.30
2022-10-17T13:42:41.759Z,43.08
2022-10-17T13:43:45.614Z,43.12
2022-10-17T13:44:56.080Z,43.35
2022-10-17T13:46:32.390Z,42.96
2022-10-17T13:47:54.043Z,43.23
2022-10-17T13:49:09.095Z,43.16
2022-10-17T13:50:44.954Z,43.38
2022-10-17T13:51:57.993Z,43.35
2022-10-17T13:53:19.897Z,43.11
2022-10-17T13:54:42.818Z,43.13
2022-10-17T13:56:35.493Z,43.24
2022-10-17T14:00:27.471Z,43.24
2022-10-17T14:01:42.409Z,43.15
2022-10-17T14:03:14.421Z,43.25
2022-10-17T14:04:26.824Z,43.54
2022-10-17T14:05:34.152Z,43.47
2022-10-17T14:06:52.259Z,43.24
2022-10-17T14:08:11.934Z,43.09
2022-10-17T14:09:31.064Z,43.12
2022-10-17T14:10:39.654Z,43.33
2022-10-17T14:12:06.476Z,43.07
2022-10-17T14:13:36.082Z,44.12
2022-10-17T14:15:09.759Z,43.27
2022-10-17T14:16:16.251Z,43.61
2022-10-17T14:17:31.010Z,43.66
2022-10-17T14:18:45.993Z,43.41
2022-10-17T14:21:40.920Z,43.53
2022-10-17T14:23:04.509Z,43.68
2022-10-17T14:24:38.988Z,44.09
2022-10-17T14:25:45.924Z,43.85
2022-10-17T14:26:58.665Z,44.05
2022-10-17T14:28:17.355Z,44.04
2022-10-17T14:29:29.086Z,44.01
2022-10-17T14:32:11.022Z,44.21
2022-10-17T14:33:36.342Z,44.44
2022-10-17T14:34:43.121Z,44.31
2022-10-17T14:36:02.087Z,44.73
2022-10-17T14:37:47.628Z,44.54
2022-10-17T14:38:53.153Z,44.57
2022-10-17T14:40:23.689Z,44.57
2022-10-17T14:41:44.147Z,44.58
2022-10-17T14:42:51.148Z,44.68
2022-10-17T14:45:41.329Z,44.74
2022-10-17T14:46:53.038Z,44.87
2022-10-17T14:48:55.342Z,45.01
2022-10-17T14:50:37.874Z,44.90
2022-10-17T14:52:17.664Z,44.73
2022-10-17T14:53:49.771Z,45.11
2022-10-17T14:55:25.569Z,45.33
2022-10-17T14:56:51.332Z,45.36
2022-10-17T14:57:59.547Z,45.17
2022-10-17T14:59:13.797Z,45.19
2022-10-17T15:00:26.549Z,45.56
2022-10-17T15:01:35.763Z,45.53
2022-10-17T15:04:11.009Z,45.67
2022-10-17T15:05:17.202Z,45.85
2022-10-17T15:06:32.647Z,45.92
2022-10-17T15:07:40.598Z,45.83
2022-10-17T15:08:45.600Z,45.86
2022-10-17T15:10:04.101Z,46.07
2022-10-17T15:11:30.672Z,46.03
2022-10-17T15:12:58.863Z,46.29
2022-10-17T15:14:19.677Z,46.36
2022-10-17T15:15:25.900Z,46.44
2022-10-17T15:16:43.454Z,46.63
2022-10-17T15:17:50.877Z,46.63
2022-10-17T15:19:28.380Z,47.02
2022-10-17T15:20:38.921Z,46.79
2022-10-17T15:21:47.205Z,46.86
2022-10-17T15:22:51.882Z,46.91
2022-10-17T15:23:58.589Z,46.99
2022-10-17T15:25:06.904Z,47.42
2022-10-17T15:26:33.081Z,47.77
2022-10-17T15:27:40.808Z,47.88
2022-10-17T15:28:49.813Z,47.93
2022-10-17T15:29:53.599Z,48.02
2022-10-17T15:31:06.894Z,47.83
2022-10-17T15:32:14.933Z,48.20
2022-10-17T15:33:18.410Z,48.22
2022-10-17T15:34:22.251Z,48.44
2022-10-17T15:35:31.047Z,48.64
2022-10-17T15:36:41.280Z,48.67
2022-10-17T15:37:46.981Z,48.62
2022-10-17T15:38:53.716Z,48.72
2022-10-17T15:39:57.487Z,48.97
2022-10-17T15:41:01.340Z,49.19
2022-10-17T15:42:12.461Z,49.05
2022-10-17T15:43:19.756Z,49.19
2022-10-17T15:44:23.625Z,49.46
2022-10-17T15:45:27.678Z,49.52
2022-10-17T15:46:36.502Z,50.32
2022-10-17T15:47:51.916Z,50.30
2022-10-17T15:49:08.763Z,50.44
2022-10-17T15:50:46.368Z,50.83
2022-10-17T15:52:01.372Z,51.05
2022-10-17T15:53:46.852Z,51.64
2022-10-17T15:54:50.753Z,51.41
2022-10-17T15:55:54.524Z,51.95
2022-10-17T15:57:03.764Z,52.16
2022-10-17T15:58:15.429Z,52.69
2022-10-17T15:59:32.414Z,53.03
2022-10-17T16:00:37.155Z,52.93
2022-10-17T16:01:50.890Z,53.36
2022-10-17T16:02:56.368Z,54.00
2022-10-17T16:05:38.785Z,54.18
2022-10-17T16:06:50.897Z,53.85
2022-10-17T16:07:58.160Z,53.99
2022-10-17T16:09:02.771Z,53.97
2022-10-17T16:10:07.405Z,54.19
2022-10-17T16:11:43.127Z,54.70
2022-10-17T16:12:49.739Z,54.59
2022-10-17T16:13:57.290Z,54.62
2022-10-17T16:15:04.847Z,54.77
2022-10-17T16:16:16.875Z,55.02
2022-10-17T16:17:21.834Z,55.19
2022-10-17T16:18:27.470Z,55.22
2022-10-17T16:19:35.546Z,55.42
2022-10-17T16:20:40.532Z,55.57
2022-10-17T16:21:45.373Z,55.72
2022-10-17T16:22:51.049Z,55.94
2022-10-17T16:23:56.385Z,55.88
2022-10-17T16:25:07.968Z,55.92
2022-10-17T16:26:16.160Z,56.24
2022-10-17T16:27:19.782Z,56.18
2022-10-17T16:28:23.479Z,56.20
2022-10-17T16:29:27.140Z,56.32
2022-10-17T16:30:33.277Z,56.50
2022-10-17T16:31:42.453Z,56.80
2022-10-17T16:32:46.983Z,56.69
2022-10-17T16:33:54.545Z,56.74
2022-10-17T16:35:00.129Z,56.68
2022-10-17T16:36:05.166Z,56.82
2022-10-17T16:37:08.581Z,56.80
2022-10-17T16:38:12.552Z,57.00
2022-10-17T16:39:16.392Z,57.23
2022-10-17T16:40:21.416Z,57.17
2022-10-17T16:41:45.641Z,57.24
2022-10-17T16:43:02.744Z,57.57
2022-10-17T16:44:16.995Z,57.75
2022-10-17T16:45:24.693Z,57.79
2022-10-17T16:46:43.114Z,57.72
2022-10-17T16:47:50.825Z,57.64
2022-10-17T16:48:56.180Z,57.87
2022-10-17T16:49:59.865Z,57.92
2022-10-17T16:51:04.236Z,58.11
2022-10-17T16:52:07.869Z,58.10
2022-10-17T16:53:11.796Z,58.11
2022-10-17T16:54:15.776Z,58.24
2022-10-17T16:55:19.963Z,58.35
2022-10-17T16:56:26.088Z,58.37
2022-10-17T16:57:30.322Z,58.60
2022-10-17T16:58:34.313Z,58.52
2022-10-17T16:59:40.845Z,58.64
2022-10-17T17:00:44.642Z,58.70
2022-10-17T17:01:48.702Z,58.85
2022-10-17T17:03:00.219Z,59.09
2022-10-17T17:04:11.989Z,59.03
2022-10-17T17:05:21.232Z,59.04
2022-10-17T17:06:31.062Z,59.24
2022-10-17T17:07:37.688Z,59.25
2022-10-17T17:08:44.629Z,59.36
2022-10-17T17:09:49.203Z,59.57
2022-10-17T17:10:54.957Z,59.66
2022-10-17T17:11:58.883Z,59.83
2022-10-17T17:13:03.611Z,59.72
2022-10-17T17:14:15.517Z,59.81
2022-10-17T17:15:21.893Z,59.82
2022-10-17T17:16:29.540Z,60.01
2022-10-17T17:17:49.642Z,59.97
2022-10-17T17:19:05.759Z,60.52
2022-10-17T17:20:11.196Z,60.06
2022-10-17T17:21:16.250Z,60.75
2022-10-17T17:22:26.105Z,60.66
2022-10-17T17:23:33.785Z,60.83
2022-10-17T17:24:37.901Z,60.76
2022-10-17T17:25:41.455Z,60.90
2022-10-17T17:26:45.412Z,60.94
2022-10-17T17:27:48.985Z,61.13
2022-10-17T17:28:58.114Z,61.26
2022-10-17T17:30:03.300Z,61.24
2022-10-17T17:31:13.630Z,61.65
2022-10-17T17:32:17.468Z,62.06
2022-10-17T17:33:23.450Z,62.46
2022-10-17T17:34:37.463Z,62.55
2022-10-17T17:35:41.466Z,63.09
2022-10-17T17:36:46.425Z,63.11
2022-10-17T17:37:50.208Z,63.58
2022-10-17T17:39:00.442Z,64.29
2022-10-17T17:40:06.217Z,64.08
2022-10-17T17:41:17.028Z,64.59
2022-10-17T17:42:25.310Z,64.54
2022-10-17T17:43:30.101Z,65.07
2022-10-17T17:44:34.553Z,64.95
2022-10-17T17:45:38.182Z,65.26
2022-10-17T17:46:43.720Z,65.88
2022-10-17T17:47:47.846Z,65.93
2022-10-17T17:48:53.970Z,65.74
2022-10-17T17:49:57.527Z,66.84
2022-10-17T17:51:10.854Z,67.05
2022-10-17T17:52:18.165Z,67.27
2022-10-17T17:53:22.921Z,67.29
2022-10-17T17:54:39.999Z,67.41
2022-10-17T17:55:46.822Z,67.94
2022-10-17T17:57:12.828Z,67.84
2022-10-17T17:58:16.690Z,67.77
2022-10-17T17:59:20.350Z,68.43
2022-10-17T18:00:27.494Z,68.37
2022-10-17T18:01:38.230Z,68.49
2022-10-17T18:02:44.463Z,68.60
2022-10-17T18:03:51.418Z,68.26
2022-10-17T18:04:54.901Z,68.25
2022-10-17T18:05:58.895Z,68.34
2022-10-17T18:07:03.284Z,68.29
2022-10-17T18:08:07.496Z,68.17
2022-10-17T18:09:13.857Z,68.03
2022-10-17T18:10:21.704Z,68.15
2022-10-17T18:11:27.549Z,68.24
2022-10-17T18:12:34.608Z,68.42
2022-10-17T18:13:39.910Z,68.34
2022-10-17T18:14:43.965Z,68.31
2022-10-17T18:15:48.911Z,67.97
2022-10-17T18:16:53.938Z,68.36
2022-10-17T18:17:58.490Z,68.40
2022-10-17T18:19:24.204Z,68.29
2022-10-17T18:20:28.749Z,68.20
2022-10-17T18:21:32.790Z,68.18
2022-10-17T18:22:36.797Z,68.53
2022-10-17T18:23:42.598Z,68.47
2022-10-17T18:24:46.133Z,68.68
2022-10-17T18:26:01.247Z,69.90
2022-10-17T18:27:05.548Z,69.53
2022-10-17T18:28:10.715Z,69.79
2022-10-17T18:29:17.684Z,69.83
2022-10-17T18:30:25.935Z,70.26
2022-10-17T18:31:36.890Z,70.39
2022-10-17T18:32:43.352Z,70.51
2022-10-17T18:33:47.164Z,70.64
2022-10-17T18:34:51.052Z,70.85
2022-10-17T18:35:59.864Z,70.84
2022-10-17T18:37:06.216Z,71.04
2022-10-17T18:38:13.226Z,71.81
2022-10-17T18:39:17.263Z,71.50
2022-10-17T18:40:22.088Z,71.97
2022-10-17T18:41:28.345Z,72.16
2022-10-17T18:42:32.332Z,71.80
2022-10-17T18:43:42.489Z,71.91
2022-10-17T18:48:01.900Z,72.92
2022-10-17T18:49:06.550Z,72.91
2022-10-17T18:50:11.011Z,74.01
2022-10-17T18:51:17.304Z,74.09
2022-10-17T18:52:21.198Z,73.88
2022-10-17T18:53:24.827Z,74.35
2022-10-17T18:54:33.493Z,74.28
2022-10-17T18:55:40.243Z,75.35
2022-10-17T18:56:53.736Z,74.51
2022-10-17T18:57:57.646Z,75.11
2022-10-17T18:59:02.404Z,74.77
2022-10-17T19:00:14.432Z,75.14
2022-10-17T19:01:30.778Z,75.31
2022-10-17T19:02:38.061Z,75.29
2022-10-17T19:03:45.615Z,76.02
2022-10-17T19:06:10.643Z,77.42
2022-10-17T19:07:17.048Z,76.76
2022-10-17T19:08:21.839Z,76.55
2022-10-17T19:09:30.202Z,76.45
2022-10-17T19:10:38.391Z,76.50
2022-10-17T19:11:44.593Z,76.67
2022-10-17T19:12:59.166Z,76.86
2022-10-17T19:14:11.449Z,77.56
2022-10-17T19:15:16.625Z,77.17
2022-10-17T19:19:56.988Z,79.28
2022-10-17T19:21:29.450Z,78.74
2022-10-17T19:24:44.159Z,79.40
2022-10-17T19:28:38.303Z,80.52
2022-10-17T19:29:58.603Z,80.40
2022-10-17T19:31:46.860Z,80.17
2022-10-17T19:33:09.539Z,81.81
2022-10-17T19:34:17.977Z,80.58
2022-10-17T19:35:30.044Z,81.66
2022-10-17T19:36:41.428Z,80.98
2022-10-17T19:37:58.645Z,81.69
2022-10-17T19:39:06.932Z,81.67
2022-10-17T19:40:15.350Z,81.17
2022-10-17T19:41:31.540Z,81.32
2022-10-17T19:43:00.103Z,81.48
2022-10-17T19:44:28.485Z,81.79
2022-10-17T19:45:37.176Z,81.94
2022-10-17T19:46:53.071Z,82.15
2022-10-17T19:48:09.049Z,82.23
2022-10-17T19:49:18.181Z,82.65
2022-10-17T19:50:27.882Z,83.02
2022-10-17T19:51:33.277Z,82.22
2022-10-17T19:52:38.879Z,82.44
2022-10-17T19:53:58.545Z,82.65
2022-10-17T19:55:05.819Z,82.76
2022-10-17T19:56:11.690Z,82.77
2022-10-17T19:57:29.653Z,83.47
2022-10-17T19:58:54.368Z,83.39
2022-10-17T20:00:00.666Z,83.59
2022-10-17T20:03:08.478Z,84.26
2022-10-17T20:04:16.191Z,83.96
2022-10-17T20:05:25.944Z,83.75
2022-10-17T20:06:37.470Z,84.40
2022-10-17T20:07:41.640Z,84.48
2022-10-17T20:08:45.803Z,84.48
2022-10-17T20:09:58.373Z,84.25
2022-10-17T20:11:16.153Z,84.94
2022-10-17T20:12:20.408Z,85.21
2022-10-17T20:13:25.393Z,84.67
2022-10-17T20:14:29.221Z,84.60
2022-10-17T20:15:32.962Z,85.79
2022-10-17T20:16:36.978Z,85.23
2022-10-17T20:17:40.994Z,85.11
2022-10-17T20:18:45.070Z,85.06
2022-10-17T20:19:55.199Z,85.73
2022-10-17T20:21:09.379Z,85.63
2022-10-17T20:22:13.222Z,85.19
2022-10-17T20:23:19.950Z,84.90
2022-10-17T20:24:23.516Z,85.60
2022-10-17T20:25:27.519Z,85.27
2022-10-17T20:26:39.564Z,85.07
2022-10-17T20:27:44.852Z,85.79
2022-10-17T20:28:49.635Z,85.85
2022-10-17T20:29:53.463Z,85.58
2022-10-17T20:30:57.571Z,87.03
2022-10-17T20:32:01.106Z,86.76
2022-10-17T20:33:04.700Z,85.89
2022-10-17T20:34:15.008Z,86.43
2022-10-17T20:35:25.835Z,86.61
2022-10-17T20:36:37.792Z,85.85
2022-10-17T20:37:44.354Z,85.95
2022-10-17T20:38:48.425Z,86.06
2022-10-17T20:40:10.702Z,86.27
2022-10-17T20:41:16.486Z,86.40
2022-10-17T20:42:22.308Z,86.32
2022-10-17T20:43:27.155Z,86.30
2022-10-17T20:44:32.350Z,86.48
2022-10-17T20:45:50.957Z,86.63
2022-10-17T20:47:02.171Z,86.65
2022-10-17T20:48:10.605Z,86.45
2022-10-17T20:49:18.547Z,86.21
2022-10-17T20:50:23.330Z,86.21
2022-10-17T20:51:28.231Z,86.33
2022-10-17T20:52:32.644Z,85.94
2022-10-17T20:53:38.172Z,86.19
2022-10-17T20:54:42.002Z,86.49
2022-10-17T20:55:45.869Z,86.67
2022-10-17T20:56:50.181Z,86.72
2022-10-17T20:57:55.929Z,86.84
2022-10-17T20:59:11.350Z,86.47
2022-10-17T21:00:16.462Z,86.18
2022-10-17T21:01:21.491Z,86.36
2022-10-17T21:02:26.387Z,86.31
2022-10-17T21:03:42.300Z,86.59
2022-10-17T21:04:50.778Z,86.24
2022-10-17T21:05:54.533Z,86.17
2022-10-17T21:06:59.821Z,86.17
2022-10-17T21:08:03.924Z,86.07
2022-10-17T21:09:10.081Z,85.97
2022-10-17T21:10:35.490Z,85.95
2022-10-17T21:11:41.715Z,86.36
2022-10-17T21:12:54.021Z,86.03
2022-10-17T21:14:04.991Z,86.28
2022-10-17T21:15:09.423Z,86.15
2022-10-17T21:16:22.694Z,86.50
2022-10-17T21:17:29.465Z,86.43
2022-10-17T21:18:33.547Z,86.15
2022-10-17T21:19:37.787Z,86.04
2022-10-17T21:20:41.842Z,86.13
2022-10-17T21:21:46.929Z,86.15
2022-10-17T21:22:51.997Z,86.07
2022-10-17T21:24:01.061Z,86.06
2022-10-17T21:25:06.298Z,86.41
2022-10-17T21:26:13.247Z,86.79
2022-10-17T21:27:19.755Z,86.80
2022-10-17T21:28:32.048Z,86.70
2022-10-17T21:29:36.199Z,86.33
2022-10-17T21:30:40.338Z,86.44
2022-10-17T21:31:45.979Z,86.22
2022-10-17T21:32:55.439Z,86.90
2022-10-17T21:34:05.653Z,86.79
2022-10-17T21:35:12.461Z,86.68
2022-10-17T21:36:18.976Z,86.72
2022-10-17T21:37:26.041Z,86.94
2022-10-17T21:38:30.057Z,87.19
2022-10-17T21:39:33.647Z,86.61
2022-10-17T21:40:37.238Z,86.56
2022-10-17T21:41:42.059Z,86.76
2022-10-17T21:42:45.728Z,87.26
2022-10-17T21:43:55.275Z,87.35
2022-10-17T21:44:59.106Z,87.17
2022-10-17T21:46:10.512Z,87.29
2022-10-17T21:47:15.623Z,87.40
2022-10-17T21:48:19.823Z,87.50
2022-10-17T21:49:27.473Z,87.79
2022-10-17T21:50:32.755Z,87.76
2022-10-17T21:51:39.554Z,87.99
2022-10-17T21:52:43.851Z,88.50
2022-10-17T21:53:48.221Z,87.94
2022-10-17T21:54:52.555Z,87.91
2022-10-17T21:56:01.719Z,88.16
2022-10-17T21:57:06.519Z,88.13
2022-10-17T21:58:10.291Z,88.36
2022-10-17T21:59:14.565Z,88.41
2022-10-17T22:00:21.763Z,88.25
2022-10-17T22:01:38.846Z,88.54
2022-10-17T22:02:43.225Z,88.76
2022-10-17T22:03:51.079Z,88.50
2022-10-17T22:04:54.712Z,88.65
2022-10-17T22:06:07.097Z,88.39
2022-10-17T22:07:26.545Z,88.36
2022-10-17T22:08:31.799Z,88.97
2022-10-17T22:09:35.992Z,88.96
2022-10-17T22:10:41.630Z,88.88
2022-10-17T22:11:52.291Z,89.05
2022-10-17T22:12:55.812Z,88.82
2022-10-17T22:14:07.162Z,88.78
2022-10-17T22:15:11.188Z,88.57
2022-10-17T22:16:19.156Z,88.83
2022-10-17T22:17:22.839Z,88.70
2022-10-17T22:18:26.888Z,88.59
2022-10-17T22:19:30.697Z,88.98
2022-10-17T22:20:35.612Z,88.90
2022-10-17T22:21:39.878Z,88.79
2022-10-17T22:22:44.190Z,88.65
2022-10-17T22:23:56.723Z,88.54
2022-10-17T22:25:00.222Z,89.08
2022-10-17T22:26:04.725Z,88.88
2022-10-17T22:27:10.389Z,88.53
2022-10-17T22:28:14.077Z,88.83
2022-10-17T22:29:18.024Z,88.72
2022-10-17T22:30:21.761Z,89.10
2022-10-17T22:31:26.259Z,89.58
2022-10-17T22:32:30.208Z,90.25
2022-10-17T22:33:39.412Z,90.33
2022-10-17T22:34:44.482Z,89.67
2022-10-17T22:35:50.622Z,90.11
2022-10-17T22:36:54.221Z,90.32
2022-10-17T22:37:58.476Z,89.89
2022-10-17T22:39:03.789Z,90.00
2022-10-17T22:40:08.812Z,89.98
2022-10-17T22:41:12.382Z,89.85
2022-10-17T22:42:18.604Z,89.92
2022-10-17T22:43:23.105Z,89.74
2022-10-17T22:44:30.058Z,89.75
2022-10-17T22:45:34.233Z,89.79
2022-10-17T22:46:38.371Z,89.79
2022-10-17T22:47:42.470Z,89.75
2022-10-17T22:48:46.546Z,89.63
2022-10-17T22:49:51.052Z,89.22
2022-10-17T22:51:00.824Z,89.11
2022-10-17T22:52:05.909Z,89.17
2022-10-17T22:53:12.786Z,89.31
2022-10-17T22:54:17.183Z,89.16
2022-10-17T22:55:21.572Z,89.08
2022-10-17T22:56:26.202Z,88.93
2022-10-17T22:57:30.471Z,89.10
2022-10-17T22:58:36.693Z,89.14
2022-10-17T22:59:41.311Z,89.09
2022-10-17T23:00:45.075Z,89.02
2022-10-17T23:01:48.913Z,89.07
2022-10-17T23:02:55.943Z,88.78
2022-10-17T23:03:59.590Z,88.91
2022-10-17T23:05:04.515Z,88.73
2022-10-17T23:06:12.311Z,88.61
2022-10-17T23:07:16.120Z,88.95
2022-10-17T23:08:20.531Z,88.92
2022-10-17T23:10:35.412Z,88.64
2022-10-17T23:11:39.180Z,89.01
2022-10-17T23:12:43.572Z,88.87
2022-10-17T23:13:47.233Z,88.84
2022-10-17T23:14:52.183Z,88.99
2022-10-17T23:15:58.151Z,89.14
2022-10-17T23:17:02.200Z,88.81
2022-10-17T23:18:09.876Z,88.93
2022-10-17T23:19:13.647Z,88.64
2022-10-17T23:20:18.313Z,88.94
2022-10-17T23:21:22.995Z,88.98
2022-10-17T23:22:30.063Z,88.81
2022-10-17T23:23:34.744Z,88.71
2022-10-17T23:24:38.750Z,88.88
2022-10-17T23:25:43.881Z,88.93
2022-10-17T23:26:48.046Z,89.02
2022-10-17T23:27:52.077Z,89.14
2022-10-17T23:28:55.757Z,89.26
2022-10-17T23:29:59.614Z,88.91
2022-10-17T23:31:21.608Z,89.49
2022-10-17T23:32:28.242Z,89.32
2022-10-17T23:33:32.531Z,89.60
2022-10-17T23:34:36.213Z,89.19
2022-10-17T23:35:40.864Z,89.00
2022-10-17T23:36:44.870Z,89.01
2022-10-17T23:37:48.498Z,88.99
2022-10-17T23:38:54.992Z,88.87
2022-10-17T23:40:05.962Z,88.98
2022-10-17T23:41:11.201Z,88.91
2022-10-17T23:42:15.768Z,88.99
2022-10-17T23:43:20.151Z,88.98
2022-10-17T23:44:24.745Z,89.20
2022-10-17T23:45:28.582Z,88.96
2022-10-17T23:46:32.663Z,89.25
2022-10-17T23:47:44.128Z,89.17
2022-10-17T23:48:47.841Z,89.09
2022-10-17T23:49:52.340Z,89.00
2022-10-17T23:50:59.176Z,89.04
2022-10-17T23:52:02.767Z,88.58
2022-10-17T23:53:06.868Z,88.94
2022-10-17T23:54:10.630Z,89.17
2022-10-17T23:55:14.600Z,88.96
2022-10-17T23:56:19.340Z,89.17
2022-10-17T23:57:23.943Z,89.00
2022-10-17T23:58:29.193Z,88.96
2022-10-17T23:59:33.583Z,88.86
